Time;durP1;ratioP1;P1;durP2;ratioP2;P2;SDS_P1;SDS_P2;PMS_P1;PMS_P2;Temp;Humidity;BMP_temperature;BMP_pressure;BME280_temperature;BME280_humidity;BME280_pressure;Samples;Min_cycle;Max_cycle;Signal;HPM_P1;HPM_P2
2023/10/27 00:01:15;;;;;;;4.30;3.25;;;4.80;99.90;;;;;;5041126;28;20091;-64
2023/10/27 00:03:42;;;;;;;4.68;3.45;;;4.80;99.90;;;;;;5037955;28;20088;-63
2023/10/27 00:06:09;;;;;;;3.95;3.53;;;4.80;99.90;;;;;;5039652;28;20051;-62
2023/10/27 00:08:36;;;;;;;4.78;3.72;;;4.80;99.90;;;;;;5033393;28;20144;-62
2023/10/27 00:11:05;;;;;;;4.03;2.80;;;4.80;99.90;;;;;;5028917;28;20054;-63
2023/10/27 00:13:32;;;;;;;5.57;3.22;;;4.80;99.90;;;;;;5025019;28;20042;-62
2023/10/27 00:15:59;;;;;;;3.38;3.03;;;4.80;99.90;;;;;;5029785;28;20080;-64
2023/10/27 00:18:26;;;;;;;4.05;3.63;;;4.80;99.90;;;;;;5030373;28;20068;-62
2023/10/27 00:20:53;;;;;;;5.13;2.95;;;4.80;99.90;;;;;;5032800;28;20096;-63
2023/10/27 00:23:22;;;;;;;4.00;3.15;;;4.80;99.90;;;;;;5030297;28;20049;-64
2023/10/27 00:25:49;;;;;;;5.57;4.00;;;4.80;99.90;;;;;;5032267;28;20041;-62
2023/10/27 00:28:16;;;;;;;5.35;3.85;;;4.80;99.90;;;;;;5030820;28;20091;-63
2023/10/27 00:30:43;;;;;;;4.20;3.80;;;4.80;99.90;;;;;;5038463;28;20492;-63
2023/10/27 00:33:10;;;;;;;4.90;4.07;;;4.80;99.90;;;;;;5030861;28;20462;-65
2023/10/27 00:35:37;;;;;;;7.28;4.95;;;4.80;99.90;;;;;;5031859;28;20042;-62
2023/10/27 00:38:04;;;;;;;6.32;4.60;;;4.80;99.90;;;;;;5028753;28;20049;-62
2023/10/27 00:40:31;;;;;;;6.68;5.30;;;4.80;99.90;;;;;;5046700;28;20052;-63
2023/10/27 00:43:01;;;;;;;6.22;4.90;;;4.80;99.90;;;;;;5032768;28;20068;-67
2023/10/27 00:45:28;;;;;;;8.55;5.70;;;4.80;99.90;;;;;;5035281;28;20048;-65
2023/10/27 00:47:55;;;;;;;5.45;4.80;;;4.70;99.90;;;;;;5032790;28;20455;-62
2023/10/27 00:50:22;;;;;;;7.00;5.88;;;4.70;99.90;;;;;;5034849;28;20091;-63
2023/10/27 00:52:49;;;;;;;5.82;5.10;;;4.70;99.90;;;;;;5030746;28;20080;-62
2023/10/27 00:55:17;;;;;;;7.30;4.97;;;4.70;99.90;;;;;;5041725;28;20037;-61
2023/10/27 00:57:45;;;;;;;7.93;6.50;;;4.70;99.90;;;;;;5035212;28;20187;-63
2023/10/27 01:00:14;;;;;;;6.72;5.20;;;4.70;99.90;;;;;;5032500;28;20041;-62
2023/10/27 01:02:41;;;;;;;7.22;5.72;;;4.70;99.90;;;;;;5031271;28;20045;-61
2023/10/27 01:05:09;;;;;;;8.10;4.95;;;4.70;99.90;;;;;;5018708;28;20074;-63
2023/10/27 01:07:36;;;;;;;7.20;5.10;;;4.70;99.90;;;;;;5029644;28;20514;-61
2023/10/27 01:10:03;;;;;;;7.50;5.10;;;4.70;99.90;;;;;;5037690;28;20107;-65
2023/10/27 01:12:31;;;;;;;6.20;5.18;;;4.70;99.90;;;;;;5029020;28;20057;-66
2023/10/27 01:14:58;;;;;;;19.17;6.07;;;4.70;99.90;;;;;;5026187;28;20115;-67
2023/10/27 01:17:25;;;;;;;11.52;5.60;;;4.70;99.90;;;;;;5029470;28;20049;-64
2023/10/27 01:19:52;;;;;;;7.13;6.13;;;4.70;99.90;;;;;;5029152;28;20124;-62
2023/10/27 01:22:19;;;;;;;6.45;5.28;;;4.70;99.90;;;;;;5043898;28;20053;-62
2023/10/27 01:24:48;;;;;;;8.35;6.65;;;4.70;99.90;;;;;;5033871;28;20069;-62
2023/10/27 01:27:16;;;;;;;10.50;5.75;;;4.70;99.90;;;;;;5033192;28;20052;-65
2023/10/27 01:29:43;;;;;;;9.43;5.93;;;4.70;99.90;;;;;;5030628;28;20599;-67
2023/10/27 01:32:10;;;;;;;8.18;7.07;;;4.70;99.90;;;;;;5032289;28;20048;-63
2023/10/27 01:34:37;;;;;;;7.07;5.93;;;4.70;99.90;;;;;;5033094;28;20037;-64
2023/10/27 01:37:04;;;;;;;6.97;5.93;;;4.70;99.90;;;;;;5027815;28;20041;-65
2023/10/27 01:39:32;;;;;;;8.60;7.43;;;4.70;99.90;;;;;;5034984;28;20042;-61
2023/10/27 01:41:59;;;;;;;8.40;6.30;;;4.70;99.90;;;;;;5034784;28;20137;-67
2023/10/27 01:44:25;;;;;;;7.57;6.50;;;4.70;99.90;;;;;;5027628;28;20050;-64
2023/10/27 01:46:54;;;;;;;8.65;6.85;;;4.70;99.90;;;;;;5032647;28;20050;-62
2023/10/27 01:49:20;;;;;;;7.72;6.93;;;4.70;99.90;;;;;;5012316;28;20065;-63
2023/10/27 01:51:48;;;;;;;6.07;5.47;;;4.70;99.90;;;;;;5034740;28;20050;-69
2023/10/27 01:54:14;;;;;;;9.52;7.85;;;4.70;99.90;;;;;;5046308;28;20041;-64
2023/10/27 01:56:41;;;;;;;8.93;6.82;;;4.70;99.90;;;;;;5029989;28;20038;-62
2023/10/27 01:59:08;;;;;;;12.93;7.47;;;4.70;99.90;;;;;;5025071;28;20045;-64
2023/10/27 02:01:35;;;;;;;7.95;5.75;;;4.70;99.90;;;;;;5037087;28;20045;-61
2023/10/27 02:04:02;;;;;;;9.50;7.60;;;4.70;99.90;;;;;;5030953;28;20042;-67
2023/10/27 02:06:30;;;;;;;9.25;8.10;;;4.70;99.90;;;;;;5029429;28;20042;-66
2023/10/27 02:08:57;;;;;;;7.22;6.40;;;4.70;99.90;;;;;;5030731;28;20068;-63
2023/10/27 02:11:24;;;;;;;10.10;7.30;;;4.70;99.90;;;;;;5029220;28;20104;-66
2023/10/27 02:13:51;;;;;;;10.82;7.85;;;4.70;99.90;;;;;;5025463;28;20068;-62
2023/10/27 02:16:18;;;;;;;9.35;8.20;;;4.70;99.90;;;;;;5035061;28;20129;-61
2023/10/27 02:18:45;;;;;;;10.48;9.30;;;4.70;99.90;;;;;;5031165;28;20049;-61
2023/10/27 02:21:12;;;;;;;9.98;7.85;;;4.70;99.90;;;;;;5023915;28;20045;-63
2023/10/27 02:23:39;;;;;;;11.63;10.43;;;4.70;99.90;;;;;;5029013;28;20065;-62
2023/10/27 02:26:06;;;;;;;11.18;9.98;;;4.70;99.90;;;;;;5030386;28;20037;-62
2023/10/27 02:28:33;;;;;;;14.02;11.10;;;4.70;99.90;;;;;;5028315;28;20042;-64
2023/10/27 02:30:59;;;;;;;14.57;11.18;;;4.70;99.90;;;;;;5031749;28;20104;-62
2023/10/27 02:33:26;;;;;;;15.00;11.68;;;4.70;99.90;;;;;;5030501;28;20056;-62
2023/10/27 02:35:53;;;;;;;14.88;12.15;;;4.70;99.90;;;;;;5025376;28;20495;-63
2023/10/27 02:38:20;;;;;;;15.95;13.25;;;4.70;99.90;;;;;;5033284;28;20510;-62
2023/10/27 02:40:47;;;;;;;13.93;11.60;;;4.70;99.90;;;;;;5026805;28;20133;-63
2023/10/27 02:43:14;;;;;;;14.43;12.40;;;4.70;99.90;;;;;;5028634;28;20069;-64
2023/10/27 02:45:42;;;;;;;13.07;11.65;;;4.70;99.90;;;;;;5026858;28;20049;-61
2023/10/27 02:48:09;;;;;;;11.85;10.35;;;4.70;99.90;;;;;;5030901;28;20377;-61
2023/10/27 02:50:36;;;;;;;12.52;10.45;;;4.70;99.90;;;;;;5028304;28;20041;-64
2023/10/27 02:53:03;;;;;;;11.43;9.88;;;4.70;99.90;;;;;;5029135;28;20072;-62
2023/10/27 02:55:29;;;;;;;12.73;10.80;;;4.70;99.90;;;;;;5030919;28;20150;-64
2023/10/27 02:57:57;;;;;;;13.90;10.88;;;4.70;99.90;;;;;;5028105;28;20539;-64
2023/10/27 03:00:24;;;;;;;12.30;11.00;;;4.70;99.90;;;;;;5027114;28;20474;-64
2023/10/27 03:02:51;;;;;;;14.57;13.05;;;4.70;99.90;;;;;;5027088;28;20048;-62
2023/10/27 03:05:18;;;;;;;14.98;13.48;;;4.70;99.90;;;;;;5029454;28;20046;-64
2023/10/27 03:07:44;;;;;;;14.68;12.55;;;4.70;99.90;;;;;;5033161;28;20049;-64
2023/10/27 03:10:11;;;;;;;17.27;13.80;;;4.70;99.90;;;;;;5031215;28;20058;-62
2023/10/27 03:12:38;;;;;;;15.63;12.07;;;4.70;99.90;;;;;;5028298;28;20037;-62
2023/10/27 03:15:05;;;;;;;15.77;13.20;;;4.70;99.90;;;;;;5025965;28;20048;-62
2023/10/27 03:17:32;;;;;;;13.05;10.88;;;4.70;99.90;;;;;;5031071;28;20050;-62
2023/10/27 03:20:00;;;;;;;14.80;13.10;;;4.70;99.90;;;;;;5026938;28;20046;-67
2023/10/27 03:22:27;;;;;;;14.85;12.07;;;4.70;99.90;;;;;;5029632;28;20045;-65
2023/10/27 03:24:56;;;;;;;13.27;11.30;;;4.70;99.90;;;;;;5023164;28;20057;-62
2023/10/27 03:27:24;;;;;;;12.15;10.60;;;4.70;99.90;;;;;;5029791;28;20418;-66
2023/10/27 03:29:51;;;;;;;17.90;13.63;;;4.70;99.90;;;;;;5026454;28;20103;-61
2023/10/27 03:32:18;;;;;;;12.13;10.70;;;4.70;99.90;;;;;;5029241;28;20530;-64
2023/10/27 03:34:46;;;;;;;15.00;12.05;;;4.70;99.90;;;;;;5032256;28;20045;-62
2023/10/27 03:37:13;;;;;;;13.75;11.20;;;4.70;99.90;;;;;;5032630;28;20041;-62
2023/10/27 03:39:40;;;;;;;17.92;13.18;;;4.70;99.90;;;;;;5026726;28;20586;-64
2023/10/27 03:42:09;;;;;;;13.73;11.68;;;4.70;99.90;;;;;;5024079;28;20089;-64
2023/10/27 03:44:37;;;;;;;17.80;11.63;;;4.70;99.90;;;;;;5028381;28;20052;-62
2023/10/27 03:47:04;;;;;;;16.70;12.90;;;4.70;99.90;;;;;;5031133;28;20329;-62
2023/10/27 03:49:31;;;;;;;12.60;11.38;;;4.70;99.90;;;;;;5029452;28;20042;-63
2023/10/27 03:51:59;;;;;;;13.25;11.15;;;4.70;99.90;;;;;;5026735;28;20399;-62
2023/10/27 03:54:27;;;;;;;12.75;11.45;;;4.70;99.90;;;;;;5027527;28;20050;-62
2023/10/27 03:56:53;;;;;;;12.23;11.02;;;4.80;99.90;;;;;;5025026;28;20042;-64
2023/10/27 03:59:20;;;;;;;13.13;11.80;;;4.80;99.90;;;;;;5025572;28;20139;-62
2023/10/27 04:01:47;;;;;;;10.13;9.13;;;4.70;99.90;;;;;;5031785;28;20077;-62
2023/10/27 04:04:14;;;;;;;11.50;10.30;;;4.70;99.90;;;;;;5031985;28;20918;-63
2023/10/27 04:06:41;;;;;;;12.20;10.27;;;4.70;99.90;;;;;;5031493;28;20042;-61
2023/10/27 04:09:08;;;;;;;12.27;9.38;;;4.70;99.90;;;;;;5029979;28;20099;-62
2023/10/27 04:11:35;;;;;;;11.50;9.48;;;4.70;99.90;;;;;;5030724;28;20103;-64
2023/10/27 04:14:02;;;;;;;11.13;9.93;;;4.70;99.90;;;;;;5027627;28;20735;-67
2023/10/27 04:16:30;;;;;;;11.57;10.38;;;4.80;99.90;;;;;;5040933;28;20049;-66
2023/10/27 04:18:57;;;;;;;12.57;10.52;;;4.70;99.90;;;;;;5034297;28;20041;-66
2023/10/27 04:21:24;;;;;;;12.52;9.95;;;4.80;99.90;;;;;;5033711;28;20045;-64
2023/10/27 04:23:51;;;;;;;11.60;10.40;;;4.80;99.90;;;;;;5035001;28;20411;-63
2023/10/27 04:26:18;;;;;;;13.35;12.02;;;4.80;99.90;;;;;;5031164;28;20120;-63
2023/10/27 04:28:45;;;;;;;13.52;11.05;;;4.80;99.90;;;;;;5035381;28;20069;-64
2023/10/27 04:31:12;;;;;;;12.40;11.15;;;4.80;99.90;;;;;;5035516;28;20437;-62
2023/10/27 04:33:38;;;;;;;13.23;11.32;;;4.80;99.90;;;;;;5027719;28;20057;-62
2023/10/27 04:36:06;;;;;;;11.07;9.45;;;4.80;99.90;;;;;;5031804;28;20152;-67
2023/10/27 04:38:33;;;;;;;11.43;9.98;;;4.80;99.90;;;;;;5029953;28;20442;-62
2023/10/27 04:41:00;;;;;;;12.55;11.23;;;4.80;99.90;;;;;;5036349;28;20065;-67
2023/10/27 04:43:29;;;;;;;14.10;10.50;;;4.80;99.90;;;;;;5030943;28;20209;-62
2023/10/27 04:45:56;;;;;;;12.73;11.10;;;4.80;99.90;;;;;;5031988;28;20045;-66
2023/10/27 04:48:23;;;;;;;12.02;10.82;;;4.80;99.90;;;;;;5032869;28;20598;-66
2023/10/27 04:50:58;;;;;;;17.10;11.38;;;4.80;99.90;;;;;;5029294;28;20069;-62
2023/10/27 04:53:25;;;;;;;9.77;8.75;;;4.80;99.90;;;;;;5030513;28;20122;-63
2023/10/27 04:55:52;;;;;;;12.35;10.93;;;4.80;99.90;;;;;;5033218;28;20550;-62
2023/10/27 04:58:20;;;;;;;11.27;9.88;;;4.80;99.90;;;;;;5038205;28;20069;-61
2023/10/27 05:00:47;;;;;;;11.35;10.32;;;4.80;99.90;;;;;;5031926;28;20106;-62
2023/10/27 05:03:16;;;;;;;12.02;10.18;;;4.80;99.90;;;;;;5031763;28;20045;-62
2023/10/27 05:05:42;;;;;;;13.82;11.07;;;4.80;99.90;;;;;;5030591;28;20065;-63
2023/10/27 05:08:09;;;;;;;14.45;10.48;;;4.80;99.90;;;;;;5034554;28;20095;-61
2023/10/27 05:10:40;;;;;;;14.82;12.52;;;4.80;99.90;;;;;;5029609;28;20057;-61
2023/10/27 05:13:07;;;;;;;14.27;12.88;;;4.80;99.90;;;;;;5032088;28;20053;-62
2023/10/27 05:15:37;;;;;;;10.48;9.48;;;4.80;99.90;;;;;;5027845;28;20471;-62
2023/10/27 05:18:06;;;;;;;14.38;11.82;;;4.80;99.90;;;;;;5029966;28;20038;-62
2023/10/27 05:20:37;;;;;;;13.60;11.88;;;4.70;99.90;;;;;;5032434;28;20044;-62
2023/10/27 05:23:04;;;;;;;12.38;11.07;;;4.80;99.90;;;;;;5032474;28;20045;-61
2023/10/27 05:25:31;;;;;;;14.77;13.25;;;4.80;99.90;;;;;;5032959;28;20073;-66
2023/10/27 05:27:58;;;;;;;15.57;11.45;;;4.80;99.90;;;;;;5030705;28;20047;-64
2023/10/27 05:30:25;;;;;;;14.63;11.90;;;4.80;99.90;;;;;;5032216;28;20045;-62
2023/10/27 05:32:52;;;;;;;13.95;12.55;;;4.80;99.90;;;;;;5028376;28;20046;-66
2023/10/27 05:35:19;;;;;;;12.63;11.32;;;4.80;99.90;;;;;;5024757;28;20047;-62
2023/10/27 05:37:46;;;;;;;13.02;11.75;;;4.80;99.90;;;;;;5036158;28;20080;-66
2023/10/27 05:40:14;;;;;;;14.30;12.63;;;4.80;99.90;;;;;;5029784;28;20045;-62
2023/10/27 05:42:42;;;;;;;12.57;11.27;;;4.80;99.90;;;;;;5031426;28;20156;-62
2023/10/27 05:45:11;;;;;;;11.43;10.30;;;4.80;99.90;;;;;;5030093;28;20065;-62
2023/10/27 05:47:40;;;;;;;14.52;13.02;;;4.70;99.90;;;;;;5027636;28;20128;-63
2023/10/27 05:50:08;;;;;;;12.93;10.93;;;4.80;99.90;;;;;;5030025;28;20060;-61
2023/10/27 05:52:35;;;;;;;14.98;13.55;;;4.80;99.90;;;;;;5029237;28;20792;-66
2023/10/27 05:55:04;;;;;;;16.58;12.02;;;4.80;99.90;;;;;;5033754;28;20046;-68
2023/10/27 05:57:32;;;;;;;13.70;12.30;;;4.80;99.90;;;;;;5026319;28;20048;-66
2023/10/27 05:59:59;;;;;;;15.18;13.77;;;4.80;99.90;;;;;;5029560;28;20491;-63
2023/10/27 06:02:26;;;;;;;17.15;11.95;;;4.80;99.90;;;;;;5026003;28;20046;-66
2023/10/27 06:04:53;;;;;;;13.00;11.70;;;4.80;99.90;;;;;;5029349;28;20061;-64
2023/10/27 06:07:20;;;;;;;13.45;11.95;;;4.80;99.90;;;;;;5032459;28;20096;-66
2023/10/27 06:09:47;;;;;;;13.88;11.52;;;4.80;99.90;;;;;;5034565;28;20388;-70
2023/10/27 06:12:15;;;;;;;16.45;12.05;;;4.80;99.90;;;;;;5021092;28;20513;-67
2023/10/27 06:14:44;;;;;;;13.45;11.93;;;4.80;99.90;;;;;;5027015;28;20084;-63
2023/10/27 06:17:12;;;;;;;13.82;11.93;;;4.80;99.90;;;;;;5030374;28;20037;-67
2023/10/27 06:19:39;;;;;;;12.65;10.90;;;4.80;99.90;;;;;;5030076;28;20076;-63
2023/10/27 06:22:08;;;;;;;12.07;10.88;;;4.80;99.90;;;;;;5032862;28;20080;-61
2023/10/27 06:24:35;;;;;;;12.98;10.90;;;4.80;99.90;;;;;;5027595;28;20132;-72
2023/10/27 06:27:03;;;;;;;11.60;10.60;;;4.80;99.90;;;;;;5028400;28;20061;-68
2023/10/27 06:29:30;;;;;;;14.93;11.45;;;4.80;99.90;;;;;;5025908;28;20111;-62
2023/10/27 06:31:57;;;;;;;13.25;11.05;;;4.80;99.90;;;;;;5024437;28;20161;-62
2023/10/27 06:34:23;;;;;;;13.60;12.20;;;4.80;99.90;;;;;;5030898;28;20144;-61
2023/10/27 06:36:50;;;;;;;12.52;11.27;;;4.80;99.90;;;;;;5031028;28;20514;-66
2023/10/27 06:39:22;;;;;;;11.20;10.07;;;4.80;99.90;;;;;;5028607;28;20635;-64
2023/10/27 06:41:49;;;;;;;13.07;11.02;;;4.80;99.90;;;;;;5028764;28;20075;-63
2023/10/27 06:44:17;;;;;;;12.57;11.27;;;4.80;99.90;;;;;;5030426;28;20480;-64
2023/10/27 06:46:45;;;;;;;13.88;11.48;;;4.80;99.90;;;;;;5030635;28;20064;-63
2023/10/27 06:49:13;;;;;;;13.68;11.27;;;4.80;99.90;;;;;;5026821;28;20234;-62
2023/10/27 06:51:40;;;;;;;13.00;11.40;;;4.90;99.90;;;;;;5027667;28;20045;-62
2023/10/27 06:54:07;;;;;;;13.43;12.02;;;4.80;99.90;;;;;;5027728;28;20669;-61
2023/10/27 06:56:34;;;;;;;15.55;12.93;;;4.90;99.90;;;;;;5032806;28;20053;-61
2023/10/27 06:59:01;;;;;;;12.82;11.50;;;4.80;99.90;;;;;;5027729;28;20099;-66
2023/10/27 07:01:29;;;;;;;11.85;10.57;;;4.80;99.90;;;;;;5038386;28;20107;-63
2023/10/27 07:03:56;;;;;;;12.05;10.85;;;4.90;99.90;;;;;;5029714;28;20099;-63
2023/10/27 07:06:24;;;;;;;11.10;10.05;;;4.80;99.90;;;;;;5032596;28;20116;-63
2023/10/27 07:08:51;;;;;;;12.50;11.25;;;4.90;99.90;;;;;;5031535;28;20045;-62
2023/10/27 07:11:18;;;;;;;14.23;11.13;;;4.80;99.90;;;;;;5034100;28;20510;-63
2023/10/27 07:13:45;;;;;;;11.50;10.30;;;4.80;99.90;;;;;;5032714;28;20451;-62
2023/10/27 07:16:12;;;;;;;13.73;10.43;;;4.80;99.90;;;;;;5029092;28;20442;-63
2023/10/27 07:18:39;;;;;;;14.35;10.70;;;4.80;99.90;;;;;;5030287;28;20037;-66
2023/10/27 07:21:06;;;;;;;11.85;10.70;;;4.90;99.90;;;;;;5028858;28;20772;-64
2023/10/27 07:23:35;;;;;;;9.60;8.65;;;4.80;99.90;;;;;;5028466;28;20152;-67
2023/10/27 07:26:14;;;;;;;9.20;7.78;;;4.90;99.90;;;;;;5035316;28;20098;-65
2023/10/27 07:28:43;;;;;;;7.85;6.97;;;4.90;99.90;;;;;;5027821;28;20585;-63
2023/10/27 07:31:09;;;;;;;9.27;8.48;;;4.90;99.90;;;;;;5030337;28;20539;-62
2023/10/27 07:33:38;;;;;;;8.38;6.95;;;4.90;99.90;;;;;;5031402;28;20047;-61
2023/10/27 07:36:06;;;;;;;8.93;7.68;;;4.90;99.90;;;;;;5034402;28;20041;-61
2023/10/27 07:38:34;;;;;;;9.43;8.48;;;4.90;99.90;;;;;;5035098;28;20049;-65
2023/10/27 07:41:03;;;;;;;8.13;7.38;;;4.90;99.90;;;;;;5026576;28;20379;-63
2023/10/27 07:43:31;;;;;;;12.18;7.88;;;4.90;99.90;;;;;;5031869;28;20041;-62
2023/10/27 07:46:00;;;;;;;9.07;7.75;;;4.90;99.90;;;;;;5031156;28;20495;-63
2023/10/27 07:48:27;;;;;;;7.65;6.97;;;4.90;99.90;;;;;;5031793;28;20080;-63
2023/10/27 07:50:57;;;;;;;8.65;7.50;;;4.90;99.90;;;;;;5033159;28;20073;-62
2023/10/27 07:53:25;;;;;;;8.37;7.47;;;4.90;99.90;;;;;;5032267;28;20127;-61
2023/10/27 07:55:52;;;;;;;9.55;8.55;;;5.00;99.90;;;;;;5034559;28;20606;-61
2023/10/27 07:58:21;;;;;;;10.45;8.25;;;5.00;99.90;;;;;;5035193;28;20041;-61
2023/10/27 08:00:51;;;;;;;10.30;8.67;;;4.90;99.90;;;;;;5030927;28;20467;-64
2023/10/27 08:03:21;;;;;;;9.03;8.00;;;4.90;99.90;;;;;;5030580;28;20060;-61
2023/10/27 08:05:50;;;;;;;11.75;8.25;;;4.90;99.90;;;;;;5028656;28;20526;-61
2023/10/27 08:08:17;;;;;;;9.25;7.63;;;4.90;99.90;;;;;;5033273;28;20435;-62
2023/10/27 08:10:46;;;;;;;8.82;7.68;;;5.00;99.90;;;;;;5029419;28;20095;-63
2023/10/27 08:13:16;;;;;;;11.50;8.18;;;4.90;99.90;;;;;;5026559;28;20071;-61
2023/10/27 08:15:46;;;;;;;8.75;7.15;;;5.00;99.90;;;;;;5033784;28;20053;-66
2023/10/27 08:18:13;;;;;;;9.73;8.73;;;5.00;99.90;;;;;;5030101;28;20037;-63
2023/10/27 08:20:40;;;;;;;9.90;7.88;;;5.00;99.90;;;;;;5037949;28;20049;-61
2023/10/27 08:23:07;;;;;;;8.68;7.45;;;4.90;99.90;;;;;;5033456;28;20146;-61
2023/10/27 08:25:34;;;;;;;9.80;8.80;;;5.00;99.90;;;;;;5029394;28;20481;-62
2023/10/27 08:28:01;;;;;;;13.25;9.27;;;5.00;99.90;;;;;;5030511;28;20066;-64
2023/10/27 08:30:28;;;;;;;9.75;8.75;;;5.00;99.90;;;;;;5031394;28;20045;-64
2023/10/27 08:32:55;;;;;;;9.40;8.30;;;5.00;99.90;;;;;;5036435;28;20071;-61
2023/10/27 08:35:22;;;;;;;10.07;8.27;;;4.90;99.90;;;;;;5034689;28;20049;-62
2023/10/27 08:37:49;;;;;;;8.65;7.82;;;4.90;99.90;;;;;;5033402;28;20045;-62
2023/10/27 08:40:16;;;;;;;10.82;9.10;;;5.00;99.90;;;;;;5032295;28;20815;-61
2023/10/27 08:42:46;;;;;;;11.85;10.63;;;5.00;99.90;;;;;;5031084;28;20053;-70
2023/10/27 08:45:13;;;;;;;8.90;8.00;;;5.00;99.90;;;;;;5031900;28;20503;-63
2023/10/27 08:47:40;;;;;;;12.63;9.05;;;5.00;99.90;;;;;;5029301;28;20540;-62
2023/10/27 08:50:07;;;;;;;10.45;8.00;;;5.00;99.90;;;;;;5035694;28;20033;-61
2023/10/27 08:52:34;;;;;;;13.32;10.25;;;5.00;99.90;;;;;;5033662;28;20073;-65
2023/10/27 08:55:07;;;;;;;15.07;7.40;;;5.00;99.90;;;;;;5032410;28;20041;-62
2023/10/27 08:57:34;;;;;;;8.82;7.45;;;5.00;99.90;;;;;;5028405;28;20051;-64
2023/10/27 09:00:02;;;;;;;10.60;8.20;;;5.00;99.90;;;;;;5033499;28;20490;-66
2023/10/27 09:02:31;;;;;;;17.60;11.85;;;5.10;99.90;;;;;;5034649;28;20053;-61
2023/10/27 09:05:06;;;;;;;13.13;7.50;;;5.10;99.90;;;;;;5030385;28;20095;-68
2023/10/27 09:07:37;;;;;;;12.70;8.00;;;5.10;99.90;;;;;;5029391;28;20557;-64
2023/10/27 09:10:06;;;;;;;24.10;11.40;;;5.10;99.90;;;;;;5025855;28;20065;-64
2023/10/27 09:12:37;;;;;;;20.23;12.90;;;5.10;99.90;;;;;;5028596;28;20563;-62
2023/10/27 09:15:07;;;;;;;11.50;8.57;;;5.10;99.90;;;;;;5031332;28;20048;-63
2023/10/27 09:18:03;;;;;;;10.07;8.15;;;5.10;99.90;;;;;;5027564;28;20125;-66
2023/10/27 09:20:31;;;;;;;10.07;7.65;;;5.10;99.90;;;;;;5024833;28;20772;-61
2023/10/27 09:23:00;;;;;;;9.23;8.18;;;5.20;99.90;;;;;;5027733;28;20098;-70
2023/10/27 09:25:29;;;;;;;11.73;8.73;;;5.20;99.90;;;;;;5029261;28;20049;-62
2023/10/27 09:28:00;;;;;;;9.63;8.38;;;5.20;99.90;;;;;;5032004;28;20117;-65
2023/10/27 09:30:37;;;;;;;7.78;6.72;;;5.20;99.90;;;;;;5030233;28;20072;-65
2023/10/27 09:33:12;;;;;;;8.10;7.30;;;5.20;99.90;;;;;;5031209;28;20041;-67
2023/10/27 09:35:40;;;;;;;8.00;7.22;;;5.20;99.90;;;;;;5028593;28;20080;-64
2023/10/27 09:38:13;;;;;;;9.73;7.85;;;5.20;99.90;;;;;;5034895;28;20092;-62
2023/10/27 09:40:41;;;;;;;8.80;7.68;;;5.30;99.90;;;;;;5035187;28;20051;-68
2023/10/27 09:43:21;;;;;;;8.82;7.72;;;5.30;99.90;;;;;;5026843;28;20043;-63
2023/10/27 09:45:53;;;;;;;8.88;7.50;;;5.30;99.90;;;;;;5030478;28;20065;-63
2023/10/27 09:48:24;;;;;;;7.35;6.57;;;5.20;99.90;;;;;;5027189;28;20041;-61
2023/10/27 09:51:16;;;;;;;6.97;6.28;;;5.20;99.90;;;;;;5032395;28;20072;-62
2023/10/27 09:53:44;;;;;;;7.82;7.03;;;5.20;99.90;;;;;;5035937;28;20077;-63
2023/10/27 09:56:13;;;;;;;9.55;7.43;;;5.20;99.90;;;;;;5029740;28;20065;-61
2023/10/27 09:58:40;;;;;;;8.38;6.97;;;5.20;99.90;;;;;;5027010;28;20561;-62
2023/10/27 10:01:10;;;;;;;7.28;6.53;;;5.20;99.90;;;;;;5029887;28;20147;-62
2023/10/27 10:03:41;;;;;;;8.45;6.60;;;5.30;99.90;;;;;;5027350;28;20049;-61
2023/10/27 10:06:14;;;;;;;9.65;6.75;;;5.30;99.90;;;;;;5028991;28;20042;-64
2023/10/27 10:09:01;;;;;;;7.60;6.72;;;5.30;99.90;;;;;;5035579;28;20033;-61
2023/10/27 10:11:36;;;;;;;8.35;7.45;;;5.30;99.90;;;;;;5026746;28;20052;-69
2023/10/27 10:14:04;;;;;;;8.77;6.55;;;5.30;99.90;;;;;;5024029;28;20042;-66
2023/10/27 10:16:44;;;;;;;7.80;6.90;;;5.30;99.90;;;;;;5028295;28;20107;-61
2023/10/27 10:19:11;;;;;;;6.40;5.60;;;5.30;99.90;;;;;;5035891;28;20104;-70
2023/10/27 10:21:43;;;;;;;7.72;6.93;;;5.30;99.90;;;;;;5035311;28;20062;-62
2023/10/27 10:24:10;;;;;;;6.03;4.95;;;5.30;99.90;;;;;;5029562;28;20041;-62
2023/10/27 10:27:05;;;;;;;9.23;5.93;;;5.30;99.90;;;;;;5028706;28;20144;-66
2023/10/27 10:29:33;;;;;;;6.95;5.68;;;5.30;99.90;;;;;;5030004;28;20124;-63
2023/10/27 10:32:28;;;;;;;9.57;6.18;;;5.30;99.90;;;;;;5033696;28;20045;-64
2023/10/27 10:35:21;;;;;;;7.45;5.32;;;5.30;99.90;;;;;;5032085;28;20044;-61
2023/10/27 10:37:49;;;;;;;7.38;6.63;;;5.30;99.90;;;;;;5034804;28;20049;-62
2023/10/27 10:40:22;;;;;;;11.73;6.13;;;5.30;99.90;;;;;;5029416;28;20041;-65
2023/10/27 10:43:24;;;;;;;7.07;5.18;;;5.30;99.90;;;;;;5027650;28;20052;-61
2023/10/27 10:45:55;;;;;;;7.45;5.45;;;5.30;99.90;;;;;;5033286;28;20128;-69
2023/10/27 10:48:30;;;;;;;6.32;5.72;;;5.30;99.90;;;;;;5035908;28;20044;-61
2023/10/27 10:51:04;;;;;;;7.20;6.30;;;5.30;99.90;;;;;;5031654;28;20049;-64
2023/10/27 10:53:31;;;;;;;10.70;6.10;;;5.40;99.90;;;;;;5030467;28;20388;-74
2023/10/27 10:56:00;;;;;;;10.00;6.75;;;5.30;99.90;;;;;;5028004;28;20046;-66
2023/10/27 10:58:36;;;;;;;7.82;5.30;;;5.40;99.90;;;;;;5023727;28;20041;-62
2023/10/27 11:01:03;;;;;;;9.18;5.10;;;5.40;99.90;;;;;;5028590;28;20429;-63
2023/10/27 11:03:33;;;;;;;6.28;5.55;;;5.40;99.90;;;;;;5027759;28;20790;-62
2023/10/27 11:06:05;;;;;;;7.20;4.32;;;5.40;99.90;;;;;;5034395;28;20045;-65
2023/10/27 11:08:35;;;;;;;8.45;5.45;;;5.30;99.90;;;;;;5032133;28;20041;-65
2023/10/27 11:11:04;;;;;;;6.28;4.53;;;5.40;99.90;;;;;;5028889;28;20514;-66
2023/10/27 11:13:33;;;;;;;9.43;5.72;;;5.40;99.90;;;;;;5038092;28;20053;-61
2023/10/27 11:16:00;;;;;;;6.35;4.65;;;5.40;99.90;;;;;;5030681;28;20051;-66
2023/10/27 11:18:28;;;;;;;4.82;4.43;;;5.40;99.90;;;;;;5035033;28;20037;-65
2023/10/27 11:20:55;;;;;;;7.25;5.50;;;5.40;99.90;;;;;;5030925;28;20096;-62
2023/10/27 11:23:27;;;;;;;8.40;5.43;;;5.40;99.90;;;;;;5032016;28;20042;-64
2023/10/27 11:26:02;;;;;;;7.45;5.20;;;5.40;99.90;;;;;;5034000;28;20071;-61
2023/10/27 11:28:29;;;;;;;6.43;5.18;;;5.40;99.90;;;;;;5029546;28;20052;-64
2023/10/27 11:31:10;;;;;;;10.30;5.20;;;5.40;99.90;;;;;;5034359;28;20129;-62
2023/10/27 11:34:00;;;;;;;7.25;5.28;;;5.40;99.90;;;;;;5031995;28;20056;-67
2023/10/27 11:36:39;;;;;;;4.73;4.23;;;5.40;99.90;;;;;;5029535;28;20069;-62
2023/10/27 11:39:14;;;;;;;4.65;4.22;;;5.50;99.90;;;;;;5030691;28;20467;-63
2023/10/27 11:41:50;;;;;;;5.70;4.20;;;5.50;99.90;;;;;;5030888;28;20131;-61
2023/10/27 11:44:17;;;;;;;5.88;4.40;;;5.50;99.90;;;;;;5027740;28;20052;-61
2023/10/27 11:46:49;;;;;;;4.88;4.28;;;5.50;99.90;;;;;;5033163;28;20037;-64
2023/10/27 11:49:17;;;;;;;7.43;4.47;;;5.50;99.90;;;;;;5028832;28;20087;-65
2023/10/27 11:51:48;;;;;;;6.45;5.05;;;5.50;99.90;;;;;;5032947;28;20045;-62
2023/10/27 11:54:15;;;;;;;7.55;4.75;;;5.50;99.90;;;;;;5034566;28;20045;-66
2023/10/27 11:56:43;;;;;;;9.60;4.07;;;5.50;99.90;;;;;;5023382;28;20049;-61
2023/10/27 11:59:10;;;;;;;4.75;4.35;;;5.50;99.90;;;;;;5030602;28;20596;-70
2023/10/27 12:01:37;;;;;;;3.67;3.38;;;5.50;99.90;;;;;;5031655;28;20049;-64
2023/10/27 12:04:07;;;;;;;7.68;4.80;;;5.50;99.90;;;;;;5034808;28;20505;-71
2023/10/27 12:06:34;;;;;;;8.60;5.00;;;5.50;99.90;;;;;;5033915;28;20445;-63
2023/10/27 12:09:01;;;;;;;7.50;3.95;;;5.50;99.90;;;;;;5031320;28;20045;-70
2023/10/27 12:11:29;;;;;;;6.32;3.80;;;5.50;99.90;;;;;;5034057;28;20053;-65
2023/10/27 12:13:57;;;;;;;4.50;4.10;;;5.50;99.90;;;;;;5028409;28;20045;-64
2023/10/27 12:16:27;;;;;;;4.32;3.92;;;5.50;99.90;;;;;;5030732;28;20084;-61
2023/10/27 12:18:57;;;;;;;6.63;4.45;;;5.50;99.90;;;;;;5027472;28;20096;-61
2023/10/27 12:21:25;;;;;;;5.18;4.68;;;5.40;99.90;;;;;;5033494;28;20055;-61
2023/10/27 12:23:53;;;;;;;5.03;4.60;;;5.50;99.90;;;;;;5032680;28;20072;-61
2023/10/27 12:26:21;;;;;;;4.53;4.13;;;5.50;99.90;;;;;;5031125;28;20053;-66
2023/10/27 12:28:48;;;;;;;4.32;3.92;;;5.50;99.90;;;;;;5030361;28;20044;-62
2023/10/27 12:31:16;;;;;;;6.47;4.07;;;5.40;99.90;;;;;;5032793;28;20136;-66
2023/10/27 12:33:46;;;;;;;4.13;2.70;;;5.40;99.90;;;;;;5028838;28;20045;-62
2023/10/27 12:36:13;;;;;;;5.25;2.80;;;5.40;99.90;;;;;;5037944;28;20128;-68
2023/10/27 12:38:41;;;;;;;3.58;3.25;;;5.40;99.90;;;;;;5037261;28;20038;-62
2023/10/27 12:41:09;;;;;;;3.47;3.22;;;5.40;99.90;;;;;;5029400;28;20070;-61
2023/10/27 12:43:36;;;;;;;4.80;3.58;;;5.40;99.90;;;;;;5029247;28;20539;-65
2023/10/27 12:46:04;;;;;;;10.13;3.45;;;5.30;99.90;;;;;;5033358;28;20046;-70
2023/10/27 12:48:32;;;;;;;3.58;3.28;;;5.30;99.90;;;;;;5035077;28;20045;-67
2023/10/27 12:51:00;;;;;;;4.72;3.10;;;5.30;99.90;;;;;;5028334;28;20423;-65
2023/10/27 12:53:27;;;;;;;2.92;2.67;;;5.20;99.90;;;;;;5029400;28;20049;-61
2023/10/27 12:55:55;;;;;;;6.72;3.38;;;5.20;99.90;;;;;;5030685;28;20107;-63